Time,TemperatureF,DewpointF,PressureIn,WindDirection,WindDirectionDegrees,WindSpeedMPH,WindSpeedGustMPH,Humidity,HourlyPrecipIn,Conditions,Clouds,dailyrainin,SolarRadiationWatts/m^2,SoftwareType,DateUTC
2013-03-23 00:22:00,32.0,16.0,-100.00,SSE,167,13.0,25.0,52,0.00,,,0.00,0.000000,,2013-03-23 08:22:00,
2013-03-23 00:32:00,32.0,16.0,-100.00,SSE,167,13.0,25.0,52,0.00,,,0.00,0.000000,,2013-03-23 08:32:00,
2013-03-23 00:42:00,32.0,16.0,-100.00,SSE,167,13.0,25.0,52,0.00,,,0.00,0.000000,,2013-03-23 08:42:00,
2013-03-23 00:52:00,32.0,16.0,-100.00,SSE,167,13.0,25.0,52,0.00,,,0.00,0.000000,,2013-03-23 08:52:00,
2013-03-23 01:22:00,26.0,12.0,-100.00,SSW,209,11.0,19.0,55,0.00,,,0.00,0.000000,,2013-03-23 09:22:00,
2013-03-23 02:23:00,26.0,24.0,-100.00,SSW,196,6.0,18.0,93,0.00,,,0.00,0.000000,,2013-03-23 10:23:00,
2013-03-23 02:33:00,26.0,24.0,-100.00,SSW,196,6.0,18.0,93,0.00,,,0.00,0.000000,,2013-03-23 10:33:00,
2013-03-23 02:42:00,26.0,24.0,-100.00,SSW,196,6.0,18.0,93,0.00,,,0.00,0.000000,,2013-03-23 10:42:00,
2013-03-23 02:52:00,26.0,24.0,-100.00,SSW,196,6.0,18.0,93,0.00,,,0.00,0.000000,,2013-03-23 10:52:00,
2013-03-23 03:22:00,28.0,25.0,-100.00,SSW,206,12.0,17.0,89,0.00,,,0.00,0.000000,,2013-03-23 11:22:00,
2013-03-23 03:32:00,28.0,25.0,-100.00,SSW,206,12.0,17.0,89,0.00,,,0.00,0.000000,,2013-03-23 11:32:00,
2013-03-23 03:42:00,28.0,25.0,-100.00,SSW,206,12.0,17.0,89,0.00,,,0.00,0.000000,,2013-03-23 11:42:00,
2013-03-23 03:51:00,28.0,25.0,-100.00,SSW,206,12.0,17.0,89,0.00,,,0.00,0.000000,,2013-03-23 11:51:00,
2013-03-23 04:22:00,28.0,24.0,-100.00,SSW,205,13.0,23.0,83,0.00,,,-99.99,0.000000,,2013-03-23 12:22:00,
2013-03-23 04:33:00,28.0,24.0,-100.00,SSW,205,13.0,23.0,83,0.00,,,-99.99,0.000000,,2013-03-23 12:33:00,
2013-03-23 04:42:00,28.0,24.0,-100.00,SSW,205,13.0,23.0,83,0.00,,,-99.99,0.000000,,2013-03-23 12:42:00,
2013-03-23 04:52:00,28.0,24.0,-100.00,SSW,205,13.0,23.0,83,0.00,,,-99.99,0.000000,,2013-03-23 12:52:00,
2013-03-23 05:22:00,28.0,25.0,-100.00,SSW,205,12.0,20.0,88,0.00,,,0.00,0.000000,,2013-03-23 13:22:00,
2013-03-23 05:32:00,28.0,25.0,-100.00,SSW,205,12.0,20.0,88,0.00,,,0.00,0.000000,,2013-03-23 13:32:00,
2013-03-23 05:42:00,28.0,25.0,-100.00,SSW,205,12.0,20.0,88,0.00,,,0.00,0.000000,,2013-03-23 13:42:00,
2013-03-23 05:52:00,28.0,25.0,-100.00,SSW,205,12.0,20.0,88,0.00,,,0.00,0.000000,,2013-03-23 13:52:00,
2013-03-23 06:22:00,27.0,25.0,-100.00,SSW,207,9.0,18.0,92,0.00,,,0.00,0.000000,,2013-03-23 14:22:00,
2013-03-23 06:32:00,27.0,25.0,-100.00,SSW,207,9.0,18.0,92,0.00,,,0.00,0.000000,,2013-03-23 14:32:00,
2013-03-23 06:42:00,27.0,25.0,-100.00,SSW,207,9.0,18.0,92,0.00,,,0.00,0.000000,,2013-03-23 14:42:00,
2013-03-23 06:52:00,27.0,25.0,-100.00,SSW,207,9.0,18.0,92,0.00,,,0.00,0.000000,,2013-03-23 14:52:00,
2013-03-23 07:22:00,29.0,25.0,-100.00,South,191,10.0,19.0,85,0.00,,,0.00,0.000000,,2013-03-23 15:22:00,
2013-03-23 07:33:00,29.0,25.0,-100.00,South,191,10.0,19.0,85,0.00,,,0.00,0.000000,,2013-03-23 15:33:00,
2013-03-23 07:43:00,29.0,25.0,-100.00,South,191,10.0,19.0,85,0.00,,,0.00,0.000000,,2013-03-23 15:43:00,
2013-03-23 07:52:00,29.0,25.0,-100.00,South,191,10.0,19.0,85,0.00,,,0.00,0.000000,,2013-03-23 15:52:00,
2013-03-23 08:23:00,28.0,24.0,-100.00,SSW,194,12.0,19.0,84,0.00,,,0.00,0.000000,,2013-03-23 16:23:00,
2013-03-23 08:32:00,28.0,24.0,-100.00,SSW,194,12.0,19.0,84,0.00,,,0.00,0.000000,,2013-03-23 16:32:00,
2013-03-23 08:42:00,28.0,24.0,-100.00,SSW,194,12.0,19.0,84,0.00,,,0.00,0.000000,,2013-03-23 16:42:00,
2013-03-23 08:52:00,28.0,24.0,-100.00,SSW,194,12.0,19.0,84,0.00,,,0.00,0.000000,,2013-03-23 16:52:00,
2013-03-23 09:22:00,27.0,23.0,-100.00,SW,215,5.0,15.0,85,0.00,,,0.00,9.000000,,2013-03-23 17:22:00,
2013-03-23 09:32:00,27.0,23.0,-100.00,SW,215,5.0,15.0,85,0.00,,,0.00,9.000000,,2013-03-23 17:32:00,
2013-03-23 09:42:00,27.0,23.0,-100.00,SW,215,5.0,15.0,85,0.00,,,0.00,9.000000,,2013-03-23 17:42:00,
2013-03-23 09:52:00,27.0,23.0,-100.00,SW,215,5.0,15.0,85,0.00,,,0.00,9.000000,,2013-03-23 17:52:00,
2013-03-23 10:22:00,26.0,24.0,-100.00,SSW,198,8.0,15.0,92,0.00,,,0.00,21.000000,,2013-03-23 18:22:00,
2013-03-23 10:32:00,26.0,24.0,-100.00,SSW,198,8.0,15.0,92,0.00,,,0.00,21.000000,,2013-03-23 18:32:00,
2013-03-23 10:42:00,26.0,24.0,-100.00,SSW,198,8.0,15.0,92,0.00,,,0.00,21.000000,,2013-03-23 18:42:00,
2013-03-23 10:52:00,26.0,24.0,-100.00,SSW,198,8.0,15.0,92,0.00,,,0.00,21.000000,,2013-03-23 18:52:00,
2013-03-23 11:22:00,26.0,22.0,-100.00,SSE,163,8.0,17.0,83,0.00,,,0.00,36.000000,,2013-03-23 19:22:00,
2013-03-23 11:32:00,26.0,22.0,-100.00,SSE,163,8.0,17.0,83,0.00,,,0.00,36.000000,,2013-03-23 19:32:00,
2013-03-23 11:42:00,26.0,22.0,-100.00,SSE,163,8.0,17.0,83,0.00,,,0.00,36.000000,,2013-03-23 19:42:00,
2013-03-23 11:52:00,26.0,22.0,-100.00,SSE,163,8.0,17.0,83,0.00,,,0.00,36.000000,,2013-03-23 19:52:00,
2013-03-23 12:22:00,26.0,21.0,-100.00,South,181,7.0,14.0,81,0.00,,,0.00,105.000000,,2013-03-23 20:22:00,
2013-03-23 12:32:00,26.0,21.0,-100.00,South,181,7.0,14.0,81,0.00,,,0.00,105.000000,,2013-03-23 20:32:00,
2013-03-23 12:42:00,26.0,21.0,-100.00,South,181,7.0,14.0,81,0.00,,,0.00,105.000000,,2013-03-23 20:42:00,
2013-03-23 12:52:00,26.0,21.0,-100.00,South,181,7.0,14.0,81,0.00,,,0.00,105.000000,,2013-03-23 20:52:00,
2013-03-23 13:22:00,28.0,23.0,-100.00,SSW,192,5.0,12.0,82,0.00,,,0.00,160.000000,,2013-03-23 21:22:00,
2013-03-23 13:32:00,28.0,23.0,-100.00,SSW,192,5.0,12.0,82,0.00,,,0.00,160.000000,,2013-03-23 21:32:00,
2013-03-23 13:43:00,28.0,23.0,-100.00,SSW,192,5.0,12.0,82,0.00,,,0.00,160.000000,,2013-03-23 21:43:00,
2013-03-23 13:53:00,28.0,23.0,-100.00,SSW,192,5.0,12.0,82,0.00,,,0.00,160.000000,,2013-03-23 21:53:00,
2013-03-23 14:23:00,27.0,22.0,-100.00,SSW,204,4.0,7.0,81,0.00,,,0.00,139.000000,,2013-03-23 22:23:00,
2013-03-23 14:32:00,27.0,22.0,-100.00,SSW,204,4.0,7.0,81,0.00,,,0.00,139.000000,,2013-03-23 22:32:00,
2013-03-23 14:42:00,27.0,22.0,-100.00,SSW,204,4.0,7.0,81,0.00,,,0.00,139.000000,,2013-03-23 22:42:00,
2013-03-23 14:52:00,27.0,22.0,-100.00,SSW,204,4.0,7.0,81,0.00,,,0.00,139.000000,,2013-03-23 22:52:00,
2013-03-23 15:22:00,29.0,24.0,-100.00,SSW,196,3.0,6.0,80,0.00,,,0.00,205.000000,,2013-03-23 23:22:00,
2013-03-23 15:32:00,29.0,24.0,-100.00,SSW,196,3.0,6.0,80,0.00,,,0.00,205.000000,,2013-03-23 23:32:00,
2013-03-23 15:42:00,29.0,24.0,-100.00,SSW,196,3.0,6.0,80,0.00,,,0.00,205.000000,,2013-03-23 23:42:00,
2013-03-23 15:52:00,29.0,24.0,-100.00,SSW,196,3.0,6.0,80,0.00,,,0.00,205.000000,,2013-03-23 23:52:00,
2013-03-23 16:22:00,31.0,26.0,-100.00,NNW,338,4.0,6.0,80,0.05,,,0.05,252.000000,,2013-03-24 00:22:00,
2013-03-23 16:32:00,31.0,26.0,-100.00,NNW,338,4.0,6.0,80,0.05,,,0.05,252.000000,,2013-03-24 00:32:00,
2013-03-23 16:42:00,31.0,26.0,-100.00,NNW,338,4.0,6.0,80,0.05,,,0.05,252.000000,,2013-03-24 00:42:00,
2013-03-23 16:52:00,31.0,26.0,-100.00,NNW,338,4.0,6.0,80,0.05,,,0.05,252.000000,,2013-03-24 00:52:00,
2013-03-23 17:22:00,28.0,24.0,-100.00,North,5,5.0,9.0,85,0.01,,,0.06,165.000000,,2013-03-24 01:22:00,
2013-03-23 17:32:00,28.0,24.0,-100.00,North,5,5.0,9.0,85,0.01,,,0.06,165.000000,,2013-03-24 01:32:00,
2013-03-23 17:42:00,28.0,24.0,-100.00,North,5,5.0,9.0,85,0.01,,,0.06,165.000000,,2013-03-24 01:42:00,
2013-03-23 17:52:00,28.0,24.0,-100.00,North,5,5.0,9.0,85,0.01,,,0.06,165.000000,,2013-03-24 01:52:00,
2013-03-23 18:22:00,28.0,24.0,-100.00,NNE,13,4.0,8.0,84,0.00,,,0.06,179.000000,,2013-03-24 02:22:00,
2013-03-23 18:32:00,28.0,24.0,-100.00,NNE,13,4.0,8.0,84,0.00,,,0.06,179.000000,,2013-03-24 02:32:00,
2013-03-23 18:42:00,28.0,24.0,-100.00,NNE,13,4.0,8.0,84,0.00,,,0.06,179.000000,,2013-03-24 02:42:00,
2013-03-23 18:52:00,28.0,24.0,-100.00,NNE,13,4.0,8.0,84,0.00,,,0.06,179.000000,,2013-03-24 02:52:00,
2013-03-23 19:22:00,26.0,22.0,-100.00,NNE,17,4.0,8.0,84,0.00,,,0.06,112.000000,,2013-03-24 03:22:00,
2013-03-23 19:33:00,26.0,22.0,-100.00,NNE,17,4.0,8.0,84,0.00,,,0.06,112.000000,,2013-03-24 03:33:00,
2013-03-23 19:42:00,26.0,22.0,-100.00,NNE,17,4.0,8.0,84,0.00,,,0.06,112.000000,,2013-03-24 03:42:00,
2013-03-23 19:52:00,26.0,22.0,-100.00,NNE,17,4.0,8.0,84,0.00,,,0.06,112.000000,,2013-03-24 03:52:00,
2013-03-23 20:22:00,24.0,20.0,-100.00,NNE,21,3.0,7.0,85,0.00,,,0.06,46.000000,,2013-03-24 04:22:00,
2013-03-23 20:32:00,24.0,20.0,-100.00,NNE,21,3.0,7.0,85,0.00,,,0.06,46.000000,,2013-03-24 04:32:00,
2013-03-23 20:42:00,24.0,20.0,-100.00,NNE,21,3.0,7.0,85,0.00,,,0.06,46.000000,,2013-03-24 04:42:00,
2013-03-23 20:52:00,24.0,20.0,-100.00,NNE,21,3.0,7.0,85,0.00,,,0.06,46.000000,,2013-03-24 04:52:00,
2013-03-23 21:22:00,23.0,21.0,-100.00,NNE,22,5.0,8.0,90,0.00,,,0.06,5.000000,,2013-03-24 05:22:00,
2013-03-23 21:32:00,23.0,21.0,-100.00,NNE,22,5.0,8.0,90,0.00,,,0.06,5.000000,,2013-03-24 05:32:00,
2013-03-23 21:42:00,23.0,21.0,-100.00,NNE,22,5.0,8.0,90,0.00,,,0.06,5.000000,,2013-03-24 05:42:00,
2013-03-23 21:51:00,23.0,21.0,-100.00,NNE,22,5.0,8.0,90,0.00,,,0.06,5.000000,,2013-03-24 05:51:00,
2013-03-23 22:22:00,21.0,18.0,-100.00,NNE,27,6.0,9.0,88,0.00,,,0.06,0.000000,,2013-03-24 06:22:00,
2013-03-23 22:32:00,21.0,18.0,-100.00,NNE,27,6.0,9.0,88,0.00,,,0.06,0.000000,,2013-03-24 06:32:00,
2013-03-23 22:42:00,21.0,18.0,-100.00,NNE,27,6.0,9.0,88,0.00,,,0.06,0.000000,,2013-03-24 06:42:00,
2013-03-23 22:52:00,21.0,18.0,-100.00,NNE,27,6.0,9.0,88,0.00,,,0.06,0.000000,,2013-03-24 06:52:00,
2013-03-23 23:22:00,21.0,18.0,-100.00,NNE,26,3.0,10.0,89,0.00,,,0.06,0.000000,,2013-03-24 07:22:00,
2013-03-23 23:32:00,21.0,18.0,-100.00,NNE,26,3.0,10.0,89,0.00,,,0.06,0.000000,,2013-03-24 07:32:00,
2013-03-23 23:42:00,21.0,18.0,-100.00,NNE,26,3.0,10.0,89,0.00,,,0.06,0.000000,,2013-03-24 07:42:00,
2013-03-23 23:52:00,21.0,18.0,-100.00,NNE,26,3.0,10.0,89,0.00,,,0.06,0.000000,,2013-03-24 07:52:00,